Time;durP1;ratioP1;P1;durP2;ratioP2;P2;SDS_P1;SDS_P2;PMS_P1;PMS_P2;Temp;Humidity;BMP_temperature;BMP_pressure;BME280_temperature;BME280_humidity;BME280_pressure;Samples;Min_cycle;Max_cycle;Signal;HPM_P1;HPM_P2
2022/01/16 00:04:48;;;;;;;;;;;;;;;1.25;100.00;101419.84;5038198;28;19975;-72
2022/01/16 00:07:32;;;;;;;;;;;;;;;1.19;100.00;101414.84;5038247;28;19923;-72
2022/01/16 00:10:17;;;;;;;;;;;;;;;1.22;100.00;101429.63;5023968;28;19966;-72
2022/01/16 00:13:01;;;;;;;;;;;;;;;1.11;100.00;101440.53;5038645;28;19986;-72
2022/01/16 00:15:45;;;;;;;;;;;;;;;1.11;100.00;101442.28;5038597;28;19924;-74
2022/01/16 00:18:40;;;;;;;;;;;;;;;1.16;100.00;101453.50;5038186;28;20061;-72
2022/01/16 00:21:32;;;;;;;;;;;;;;;1.08;100.00;101438.03;5039758;28;19924;-73
2022/01/16 00:24:16;;;;;;;;;;;;;;;1.14;100.00;101437.78;5052817;28;19971;-72
2022/01/16 00:26:59;;;;;;;;;;;;;;;1.08;100.00;101432.78;5024028;28;19924;-74
2022/01/16 00:29:43;;;;;;;;;;;;;;;0.95;100.00;101415.75;5037987;28;19970;-74
2022/01/16 00:32:27;;;;;;;;;;;;;;;1.01;100.00;101394.53;5053262;28;19967;-72
2022/01/16 00:35:11;;;;;;;;;;;;;;;0.93;100.00;101390.50;5053171;28;19939;-73
2022/01/16 00:37:55;;;;;;;;;;;;;;;1.02;100.00;101396.25;5053144;28;19963;-73
2022/01/16 00:40:39;;;;;;;;;;;;;;;0.91;100.00;101395.78;5038036;28;19924;-72
2022/01/16 00:43:23;;;;;;;;;;;;;;;0.94;100.00;101410.56;5052777;28;19924;-73
2022/01/16 00:46:07;;;;;;;;;;;;;;;1.01;100.00;101426.03;5052890;28;19971;-73
2022/01/16 00:48:51;;;;;;;;;;;;;;;0.94;100.00;101407.94;5037851;28;19939;-73
2022/01/16 00:51:35;;;;;;;;;;;;;;;0.80;100.00;101405.81;5037512;28;20327;-73
2022/01/16 00:54:19;;;;;;;;;;;;;;;0.71;100.00;101427.16;5037580;28;20029;-72
2022/01/16 00:57:03;;;;;;;;;;;;;;;0.71;100.00;101432.41;5037740;28;19923;-73
2022/01/16 00:59:48;;;;;;;;;;;;;;;0.77;100.00;101424.31;5037608;28;20342;-73
2022/01/16 01:02:32;;;;;;;;;;;;;;;0.72;100.00;101441.16;5052831;28;19966;-73
2022/01/16 01:05:16;;;;;;;;;;;;;;;0.66;100.00;101439.56;5052558;28;20019;-73
2022/01/16 01:08:00;;;;;;;;;;;;;;;0.60;100.00;101428.44;5055430;28;19923;-73
2022/01/16 01:10:48;;;;;;;;;;;;;;;0.61;100.00;101430.13;5041611;28;20028;-73
2022/01/16 01:13:44;;;;;;;;;;;;;;;0.58;100.00;101454.75;5042017;28;19924;-73
2022/01/16 01:16:48;;;;;;;;;;;;;;;0.61;100.00;101449.38;5043161;28;19940;-74
2022/01/16 01:19:33;;;;;;;;;;;;;;;0.53;100.00;101432.19;5044277;28;20329;-73
2022/01/16 01:22:17;;;;;;;;;;;;;;;0.56;100.00;101396.22;5056427;28;19923;-73
2022/01/16 01:25:01;;;;;;;;;;;;;;;0.65;100.00;101353.88;5026742;28;19995;-73
2022/01/16 01:27:46;;;;;;;;;;;;;;;0.53;100.00;101348.25;5041453;28;19924;-73
2022/01/16 01:30:30;;;;;;;;;;;;;;;0.42;100.00;101348.63;5027220;28;20395;-73
2022/01/16 01:33:14;;;;;;;;;;;;;;;0.31;100.00;101337.66;5040996;28;20379;-73
2022/01/16 01:35:58;;;;;;;;;;;;;;;0.44;100.00;101364.31;5056158;28;20362;-73
2022/01/16 01:38:42;;;;;;;;;;;;;;;0.40;100.00;101384.53;5041308;28;20293;-73
2022/01/16 01:41:28;;;;;;;;;;;;;;;0.43;100.00;101400.16;5040879;28;19927;-73
2022/01/16 01:53:21;;;;;;;;;;;;;;;0.26;100.00;101444.50;5043109;28;19963;-73
2022/01/16 01:56:05;;;;;;;;;;;;;;;0.20;100.00;101434.19;5040880;28;19924;-72
2022/01/16 01:58:53;;;;;;;;;;;;;;;0.26;100.00;101433.13;5040686;28;20281;-73
2022/01/16 02:01:37;;;;;;;;;;;;;;;0.16;100.00;101450.97;5056017;28;19943;-72
2022/01/16 02:04:21;;;;;;;;;;;;;;;0.12;100.00;101451.94;5055295;28;19978;-72
2022/01/16 02:07:05;;;;;;;;;;;;;;;0.20;100.00;101457.81;5026467;28;19939;-73
2022/01/16 02:09:49;;;;;;;;;;;;;;;0.12;100.00;101462.44;5055507;28;19991;-73
2022/01/16 02:12:34;;;;;;;;;;;;;;;0.16;100.00;101457.94;5055578;28;19971;-74
2022/01/16 02:15:37;;;;;;;;;;;;;;;0.14;100.00;101460.63;5040357;28;20027;-74
2022/01/16 02:36:34;;;;;;;;;;;;;;;-0.08;100.00;101425.53;5040761;28;19997;-73
2022/01/16 02:39:18;;;;;;;;;;;;;;;-0.10;100.00;101430.88;5041071;28;19970;-73
2022/01/16 02:42:02;;;;;;;;;;;;;;;-0.12;100.00;101430.91;5054912;28;19923;-73
2022/01/16 02:44:49;;;;;;;;;;;;;;;-0.15;100.00;101427.53;5054610;28;19975;-74
2022/01/16 02:47:33;;;;;;;;;;;;;;;-0.34;100.00;101418.56;5055010;28;19963;-74
2022/01/16 02:50:17;;;;;;;;;;;;;;;-0.25;100.00;101399.94;5039445;28;19928;-73
2022/01/16 02:53:03;;;;;;;;;;;;;;;-0.26;100.00;101406.06;5039614;28;20338;-72
2022/01/16 02:55:47;;;;;;;;;;;;;;;-0.40;100.00;101403.03;5039512;28;20345;-72
2022/01/16 02:58:31;;;;;;;;;;;;;;;-0.44;100.00;101409.28;5054677;28;20355;-72
2022/01/16 03:01:14;;;;;;;;;;;;;;;-0.36;100.00;101397.66;5054529;28;19923;-70
2022/01/16 03:03:58;;;;;;;;;;;;;;;-0.44;100.00;101406.66;5039058;28;20391;-73
2022/01/16 03:06:42;;;;;;;;;;;;;;;-0.41;100.00;101401.31;5039563;28;19975;-72
2022/01/16 03:09:34;;;;;;;;;;;;;;;-0.42;100.00;101391.75;5025548;28;19928;-72
2022/01/16 03:12:18;;;;;;;;;;;;;;;-0.48;100.00;101399.78;5040199;28;20340;-74
2022/01/16 03:15:03;;;;;;;;;;;;;;;-0.52;100.00;101406.88;5054246;28;19958;-72
2022/01/16 03:23:39;;;;;;;;;;;;;;;-0.40;100.00;101388.19;5041343;28;19927;-74
2022/01/16 03:26:23;;;;;;;;;;;;;;;-0.40;100.00;101397.78;5038611;28;20376;-72
2022/01/16 03:29:07;;;;;;;;;;;;;;;-0.39;100.00;101400.38;5038248;28;20395;-72
2022/01/16 03:31:51;;;;;;;;;;;;;;;-0.39;100.00;101389.03;5038594;28;20519;-71
2022/01/16 03:34:35;;;;;;;;;;;;;;;-0.42;100.00;101397.00;5038898;28;19924;-72
2022/01/16 03:37:19;;;;;;;;;;;;;;;-0.49;100.00;101396.34;5038922;28;20012;-71
2022/01/16 03:40:05;;;;;;;;;;;;;;;-0.43;100.00;101400.53;5038436;28;19924;-72
2022/01/16 03:42:49;;;;;;;;;;;;;;;-0.39;100.00;101399.50;5053891;28;19966;-72
2022/01/16 03:45:32;;;;;;;;;;;;;;;-0.32;100.00;101385.31;5038159;28;19928;-72
2022/01/16 03:48:16;;;;;;;;;;;;;;;-0.21;100.00;101402.38;5038536;28;20414;-72
2022/01/16 03:51:00;;;;;;;;;;;;;;;-0.16;100.00;101391.75;5053418;28;19962;-72
2022/01/16 03:53:44;;;;;;;;;;;;;;;-0.36;100.00;101404.63;5040265;28;19985;-73
2022/01/16 03:56:28;;;;;;;;;;;;;;;-0.34;100.00;101418.56;5053564;28;20447;-72
2022/01/16 03:59:12;;;;;;;;;;;;;;;-0.41;100.00;101398.69;5038126;28;20076;-72
2022/01/16 04:01:56;;;;;;;;;;;;;;;-0.48;100.00;101391.94;5038492;28;20367;-73
2022/01/16 04:04:40;;;;;;;;;;;;;;;-0.46;100.00;101405.84;5038374;28;19928;-73
2022/01/16 04:07:29;;;;;;;;;;;;;;;-0.39;100.00;101396.88;5024257;28;19923;-73
2022/01/16 04:10:13;;;;;;;;;;;;;;;-0.34;100.00;101395.84;5039036;28;20352;-73
2022/01/16 04:12:57;;;;;;;;;;;;;;;-0.35;100.00;101406.38;5038209;28;19924;-71
2022/01/16 04:15:41;;;;;;;;;;;;;;;-0.35;100.00;101403.75;5024576;28;19939;-73
2022/01/16 04:18:25;;;;;;;;;;;;;;;-0.40;100.00;101408.28;5053213;28;19983;-73
2022/01/16 04:21:09;;;;;;;;;;;;;;;-0.37;100.00;101409.03;5038133;28;19986;-73
2022/01/16 04:23:53;;;;;;;;;;;;;;;-0.39;100.00;101403.00;5052991;28;20431;-72
2022/01/16 04:26:37;;;;;;;;;;;;;;;-0.26;100.00;101414.78;5052836;28;19998;-70
2022/01/16 04:29:21;;;;;;;;;;;;;;;-0.26;100.00;101421.78;5053217;28;20237;-72
2022/01/16 04:32:05;;;;;;;;;;;;;;;-0.20;100.00;101424.22;5037894;28;20337;-72
2022/01/16 04:34:48;;;;;;;;;;;;;;;-0.29;100.00;101428.00;5052880;28;20300;-73
2022/01/16 04:37:33;;;;;;;;;;;;;;;-0.47;100.00;101407.63;5037855;28;19924;-72
2022/01/16 04:40:16;;;;;;;;;;;;;;;-0.53;100.00;101401.72;5023925;28;19994;-72
2022/01/16 04:46:03;;;;;;;;;;;;;;;-0.58;100.00;101394.00;5057022;28;20308;-71
2022/01/16 04:48:47;;;;;;;;;;;;;;;-0.68;100.00;101396.94;5042173;28;20327;-72
2022/01/16 04:51:31;;;;;;;;;;;;;;;-0.55;100.00;101387.81;5041508;28;20002;-73
2022/01/16 04:54:15;;;;;;;;;;;;;;;-0.70;100.00;101390.88;5041735;28;19923;-72
2022/01/16 04:56:59;;;;;;;;;;;;;;;-0.55;100.00;101393.06;5041750;28;20016;-71
2022/01/16 04:59:43;;;;;;;;;;;;;;;-0.55;100.00;101399.13;5042284;28;20396;-72
2022/01/16 05:02:27;;;;;;;;;;;;;;;-0.55;100.00;101395.66;5042505;28;20438;-72
2022/01/16 05:05:11;;;;;;;;;;;;;;;-0.46;100.00;101396.22;5042009;28;20023;-72
2022/01/16 05:07:54;;;;;;;;;;;;;;;-0.50;100.00;101397.25;5042753;28;20019;-73
2022/01/16 05:10:38;;;;;;;;;;;;;;;-0.42;100.00;101400.44;5041487;28;19963;-72
2022/01/16 05:19:11;;;;;;;;;;;;;;;-0.58;100.00;101408.84;5056446;28;19924;-72
2022/01/16 05:21:55;;;;;;;;;;;;;;;-0.47;100.00;101417.22;5041422;28;20022;-72
2022/01/16 05:24:39;;;;;;;;;;;;;;;-0.44;100.00;101406.66;5040580;28;19975;-72
2022/01/16 05:27:23;;;;;;;;;;;;;;;-0.46;100.00;101408.44;5056239;28;19924;-72
2022/01/16 05:30:07;;;;;;;;;;;;;;;-0.31;100.00;101414.06;5026855;28;19994;-70
2022/01/16 05:32:51;;;;;;;;;;;;;;;-0.31;100.00;101413.22;5041131;28;20017;-72
2022/01/16 05:35:35;;;;;;;;;;;;;;;-0.29;100.00;101416.66;5056169;28;19938;-72
2022/01/16 05:38:19;;;;;;;;;;;;;;;-0.37;100.00;101419.53;5055866;28;20030;-74
2022/01/16 05:41:03;;;;;;;;;;;;;;;-0.31;100.00;101424.53;5040986;28;19924;-72
2022/01/16 05:43:47;;;;;;;;;;;;;;;-0.31;100.00;101421.94;5040500;28;19943;-72
2022/01/16 05:46:31;;;;;;;;;;;;;;;-0.45;100.00;101428.53;5040761;28;19927;-72
2022/01/16 05:49:14;;;;;;;;;;;;;;;-0.52;100.00;101429.63;5040871;28;19986;-72
2022/01/16 05:51:58;;;;;;;;;;;;;;;-0.62;100.00;101423.78;5055774;28;19961;-72
2022/01/16 05:54:42;;;;;;;;;;;;;;;-0.61;100.00;101419.41;5055578;28;19928;-71
2022/01/16 05:57:26;;;;;;;;;;;;;;;-0.66;100.00;101421.34;5026607;28;20303;-72
2022/01/16 06:00:11;;;;;;;;;;;;;;;-0.60;100.00;101426.38;5040922;28;20288;-74
2022/01/16 06:02:54;;;;;;;;;;;;;;;-0.68;100.00;101429.22;5040345;28;19939;-72
2022/01/16 06:05:38;;;;;;;;;;;;;;;-0.55;100.00;101427.09;5055405;28;19985;-72
2022/01/16 06:08:22;;;;;;;;;;;;;;;-0.63;100.00;101447.41;5055399;28;19923;-71
2022/01/16 06:11:06;;;;;;;;;;;;;;;-0.60;100.00;101442.09;5055549;28;19927;-72
2022/01/16 06:13:52;;;;;;;;;;;;;;;-0.60;100.00;101447.31;5055216;28;19924;-72
2022/01/16 06:16:36;;;;;;;;;;;;;;;-0.61;100.00;101448.22;5055163;28;19963;-73
2022/01/16 06:19:20;;;;;;;;;;;;;;;-0.64;100.00;101445.72;5040291;28;19939;-72
2022/01/16 06:22:04;;;;;;;;;;;;;;;-0.55;100.00;101453.28;5040095;28;20368;-73
2022/01/16 06:24:48;;;;;;;;;;;;;;;-0.61;100.00;101466.56;5025772;28;20028;-73
2022/01/16 06:27:31;;;;;;;;;;;;;;;-0.56;100.00;101475.13;5055542;28;20257;-72
2022/01/16 06:30:15;;;;;;;;;;;;;;;-0.55;100.00;101476.88;5055088;28;19962;-74
2022/01/16 06:32:59;;;;;;;;;;;;;;;-0.57;100.00;101479.53;5055220;28;19942;-71
2022/01/16 06:35:43;;;;;;;;;;;;;;;-0.53;100.00;101465.41;5055063;28;19927;-72
2022/01/16 06:38:27;;;;;;;;;;;;;;;-0.53;100.00;101470.66;5025907;28;19927;-71
2022/01/16 06:41:11;;;;;;;;;;;;;;;-0.41;100.00;101470.28;5040110;28;20019;-73
2022/01/16 06:43:54;;;;;;;;;;;;;;;-0.48;100.00;101468.75;5054660;28;19923;-72
2022/01/16 06:46:38;;;;;;;;;;;;;;;-0.45;100.00;101473.06;5039519;28;20390;-72
2022/01/16 06:49:22;;;;;;;;;;;;;;;-0.36;100.00;101478.00;5039866;28;19924;-73
2022/01/16 06:52:06;;;;;;;;;;;;;;;-0.30;100.00;101477.81;5039653;28;20347;-73
2022/01/16 06:54:50;;;;;;;;;;;;;;;-0.36;100.00;101484.09;5039203;28;20058;-73
2022/01/16 06:57:34;;;;;;;;;;;;;;;-0.33;100.00;101489.25;5054955;28;19970;-73
2022/01/16 07:00:18;;;;;;;;;;;;;;;-0.35;100.00;101484.97;5039335;28;20394;-74
2022/01/16 07:03:02;;;;;;;;;;;;;;;-0.30;100.00;101490.91;5039446;28;19944;-73
2022/01/16 07:05:46;;;;;;;;;;;;;;;-0.34;100.00;101498.00;5053402;28;19927;-73
2022/01/16 07:08:30;;;;;;;;;;;;;;;-0.35;100.00;101500.69;5025067;28;19970;-73
2022/01/16 07:11:15;;;;;;;;;;;;;;;-0.26;100.00;101508.25;5025580;28;19979;-73
2022/01/16 07:13:59;;;;;;;;;;;;;;;-0.28;100.00;101520.56;5024963;28;19967;-73
2022/01/16 07:16:43;;;;;;;;;;;;;;;-0.19;100.00;101526.38;5038922;28;19928;-74
2022/01/16 07:19:27;;;;;;;;;;;;;;;-0.23;100.00;101544.88;5039097;28;19971;-73
2022/01/16 07:22:11;;;;;;;;;;;;;;;-0.16;100.00;101543.75;5039019;28;19962;-73
2022/01/16 07:24:55;;;;;;;;;;;;;;;-0.15;100.00;101548.09;5053700;28;20011;-73
2022/01/16 07:27:39;;;;;;;;;;;;;;;-0.13;100.00;101557.63;5054034;28;20421;-73
2022/01/16 07:30:23;;;;;;;;;;;;;;;-0.03;100.00;101550.38;5025301;28;20015;-73
2022/01/16 07:33:08;;;;;;;;;;;;;;;-0.02;100.00;101551.16;5053706;28;20308;-72
2022/01/16 07:35:51;;;;;;;;;;;;;;;-0.08;100.00;101562.72;5024621;28;19928;-72
2022/01/16 07:38:35;;;;;;;;;;;;;;;-0.02;100.00;101548.53;5053888;28;19940;-72
2022/01/16 07:41:19;;;;;;;;;;;;;;;0.09;100.00;101556.94;5024723;28;19967;-71
2022/01/16 07:44:03;;;;;;;;;;;;;;;0.06;100.00;101567.53;5053533;28;19942;-73
2022/01/16 07:46:47;;;;;;;;;;;;;;;-0.05;100.00;101558.25;5024430;28;19927;-71
2022/01/16 07:49:31;;;;;;;;;;;;;;;0.05;100.00;101560.56;5038376;28;19970;-72
2022/01/16 07:52:15;;;;;;;;;;;;;;;0.05;100.00;101565.81;5053438;28;19982;-72
2022/01/16 07:54:59;;;;;;;;;;;;;;;0.03;100.00;101578.09;5038385;28;20394;-72
2022/01/16 07:57:43;;;;;;;;;;;;;;;0.06;100.00;101570.16;5038279;28;19932;-72
2022/01/16 08:00:27;;;;;;;;;;;;;;;0.15;100.00;101580.34;5053256;28;19958;-72
2022/01/16 08:03:11;;;;;;;;;;;;;;;0.25;100.00;101584.38;5038351;28;19966;-72
2022/01/16 08:05:55;;;;;;;;;;;;;;;0.26;100.00;101585.25;5053226;28;19928;-71
2022/01/16 08:08:39;;;;;;;;;;;;;;;0.16;100.00;101587.31;5053173;28;19963;-73
2022/01/16 08:11:23;;;;;;;;;;;;;;;0.21;100.00;101585.38;5038226;28;19982;-73
2022/01/16 08:14:07;;;;;;;;;;;;;;;0.15;100.00;101582.09;5038308;28;19927;-74
2022/01/16 08:16:51;;;;;;;;;;;;;;;0.14;100.00;101583.84;5038083;28;20046;-73
2022/01/16 08:19:35;;;;;;;;;;;;;;;0.09;100.00;101591.03;5052950;28;19924;-73
2022/01/16 08:22:19;;;;;;;;;;;;;;;0.13;100.00;101587.38;5053219;28;19969;-74
2022/01/16 08:25:03;;;;;;;;;;;;;;;0.09;100.00;101588.41;5052632;28;19978;-72
2022/01/16 08:27:49;;;;;;;;;;;;;;;0.21;100.00;101587.16;5037180;28;20394;-73
2022/01/16 08:30:33;;;;;;;;;;;;;;;0.15;100.00;101593.47;5037989;28;19924;-74
2022/01/16 08:33:17;;;;;;;;;;;;;;;0.24;100.00;101598.41;5037898;28;19928;-73
2022/01/16 08:36:01;;;;;;;;;;;;;;;0.20;100.00;101601.16;5037840;28;20430;-72
2022/01/16 08:38:45;;;;;;;;;;;;;;;0.16;100.00;101610.03;5038060;28;19983;-73
2022/01/16 08:41:29;;;;;;;;;;;;;;;0.18;100.00;101605.59;5037849;28;20008;-72
2022/01/16 08:44:13;;;;;;;;;;;;;;;0.13;100.00;101623.25;5052712;28;19924;-72
2022/01/16 08:46:57;;;;;;;;;;;;;;;0.14;100.00;101623.19;5052761;28;19932;-73
2022/01/16 08:49:40;;;;;;;;;;;;;;;0.15;100.00;101639.78;5053295;28;19940;-72
2022/01/16 08:52:25;;;;;;;;;;;;;;;0.23;100.00;101628.16;5053008;28;20340;-72
2022/01/16 08:55:09;;;;;;;;;;;;;;;0.14;100.00;101628.44;5037526;28;19939;-74
2022/01/16 08:57:53;;;;;;;;;;;;;;;0.14;100.00;101633.69;5052937;28;19970;-72
2022/01/16 09:00:37;;;;;;;;;;;;;;;0.21;100.00;101622.09;5037591;28;20320;-72
2022/01/16 09:03:21;;;;;;;;;;;;;;;0.19;100.00;101628.28;5052499;28;19924;-72
2022/01/16 09:06:05;;;;;;;;;;;;;;;0.23;100.00;101628.16;5037640;28;20023;-72
2022/01/16 09:08:49;;;;;;;;;;;;;;;0.40;100.00;101639.00;5037748;28;20364;-73
2022/01/16 09:11:33;;;;;;;;;;;;;;;0.30;100.00;101637.56;5037796;28;20050;-73
2022/01/16 09:14:17;;;;;;;;;;;;;;;0.36;100.00;101624.28;5052424;28;19943;-71
2022/01/16 09:17:00;;;;;;;;;;;;;;;0.37;100.00;101641.72;5037347;28;20015;-73
2022/01/16 09:19:46;;;;;;;;;;;;;;;0.41;100.00;101638.09;5037546;28;19923;-73
2022/01/16 09:22:29;;;;;;;;;;;;;;;0.36;100.00;101640.00;5037273;28;20475;-73
2022/01/16 09:25:14;;;;;;;;;;;;;;;0.49;100.00;101648.34;5052132;28;20446;-73
2022/01/16 09:27:58;;;;;;;;;;;;;;;0.58;100.00;101646.28;5038508;28;20006;-72
2022/01/16 09:30:42;;;;;;;;;;;;;;;0.68;100.00;101657.34;5041142;28;20394;-72
2022/01/16 09:33:25;;;;;;;;;;;;;;;0.65;100.00;101663.53;5041081;28;20011;-72
2022/01/16 09:36:09;;;;;;;;;;;;;;;0.62;100.00;101662.81;5056220;28;20292;-71
2022/01/16 09:38:53;;;;;;;;;;;;;;;0.69;100.00;101665.19;5040800;28;20295;-72
2022/01/16 09:41:38;;;;;;;;;;;;;;;0.70;100.00;101693.13;5056154;28;20269;-70
2022/01/16 09:44:22;;;;;;;;;;;;;;;0.64;100.00;101682.81;5041022;28;19927;-70
2022/01/16 09:47:06;;;;;;;;;;;;;;;0.60;100.00;101693.47;5040732;28;19970;-70
2022/01/16 09:49:50;;;;;;;;;;;;;;;0.73;100.00;101708.78;5040439;28;19924;-70
2022/01/16 09:52:37;;;;;;;;;;;;;;;0.69;100.00;101696.66;5040702;28;19924;-70
2022/01/16 09:55:22;;;;;;;;;;;;;;;0.80;100.00;101701.56;5026370;28;20014;-72
2022/01/16 09:58:05;;;;;;;;;;;;;;;0.86;100.00;101696.13;5040720;28;19928;-71
2022/01/16 10:00:49;;;;;;;;;;;;;;;0.84;100.00;101698.78;5040591;28;19965;-72
2022/01/16 10:03:34;;;;;;;;;;;;;;;0.83;100.00;101710.22;5055420;28;19924;-72
2022/01/16 10:06:20;;;;;;;;;;;;;;;0.70;100.00;101708.88;5040613;28;20011;-72
2022/01/16 10:09:15;;;;;;;;;;;;;;;0.70;100.00;101723.75;5055380;28;19923;-72
2022/01/16 10:12:01;;;;;;;;;;;;;;;0.79;100.00;101719.09;5040229;28;20300;-72
2022/01/16 10:14:47;;;;;;;;;;;;;;;0.80;100.00;101720.81;5040634;28;19966;-72
2022/01/16 10:17:31;;;;;;;;;;;;;;;0.89;100.00;101727.53;5040300;28;19923;-72
2022/01/16 10:20:16;;;;;;;;;;;;;;;0.88;100.00;101724.06;5040330;28;20433;-70
2022/01/16 10:23:01;;;;;;;;;;;;;;;0.91;100.00;101734.47;5054140;28;20364;-70
2022/01/16 10:25:47;;;;;;;;;;;;;;;0.92;100.00;101741.44;5025854;28;19951;-71
2022/01/16 10:28:33;;;;;;;;;;;;;;;1.04;100.00;101733.16;5040373;28;20039;-70
2022/01/16 10:31:18;;;;;;;;;;;;;;;1.04;100.00;101725.28;5055060;28;19951;-71
2022/01/16 10:34:01;;;;;;;;;;;;;;;0.94;100.00;101734.34;5025996;28;19924;-72
2022/01/16 10:36:45;;;;;;;;;;;;;;;0.88;100.00;101731.94;5039931;28;19923;-72
2022/01/16 10:39:29;;;;;;;;;;;;;;;0.94;100.00;101726.47;5025724;28;20002;-71
2022/01/16 10:42:16;;;;;;;;;;;;;;;0.92;100.00;101725.69;5039878;28;20009;-72
2022/01/16 10:45:00;;;;;;;;;;;;;;;0.97;100.00;101729.03;5039692;28;19975;-72
2022/01/16 10:47:51;;;;;;;;;;;;;;;1.03;100.00;101727.97;5054734;28;19986;-72
2022/01/16 10:50:39;;;;;;;;;;;;;;;1.08;100.00;101737.41;5054882;28;19923;-72
2022/01/16 10:53:26;;;;;;;;;;;;;;;1.23;100.00;101729.03;5039380;28;20352;-71
2022/01/16 10:56:10;;;;;;;;;;;;;;;1.26;100.00;101730.69;5039399;28;20019;-71
2022/01/16 10:58:56;;;;;;;;;;;;;;;1.42;100.00;101718.75;5039615;28;20431;-69
2022/01/16 11:01:40;;;;;;;;;;;;;;;1.25;100.00;101728.97;5026136;28;20491;-68
2022/01/16 11:04:27;;;;;;;;;;;;;;;1.33;100.00;101738.31;5054701;28;19939;-71
2022/01/16 11:07:11;;;;;;;;;;;;;;;1.36;100.00;101732.09;5054378;28;20371;-71
2022/01/16 11:09:55;;;;;;;;;;;;;;;1.41;100.00;101735.44;5039066;28;19947;-70
2022/01/16 11:12:38;;;;;;;;;;;;;;;1.35;100.00;101736.50;5039365;28;20094;-71
2022/01/16 11:15:23;;;;;;;;;;;;;;;1.44;100.00;101746.69;5039214;28;19923;-71
2022/01/16 11:18:08;;;;;;;;;;;;;;;1.45;100.00;101739.69;5039253;28;20009;-71
2022/01/16 11:26:38;;;;;;;;;;;;;;;1.68;100.00;101742.38;5039463;28;19932;-70
2022/01/16 11:29:22;;;;;;;;;;;;;;;1.68;100.00;101734.50;5024978;28;19967;-71
2022/01/16 11:32:07;;;;;;;;;;;;;;;1.68;100.00;101756.38;5024959;28;19927;-71
2022/01/16 11:34:50;;;;;;;;;;;;;;;1.69;100.00;101742.34;5054079;28;19924;-69
2022/01/16 11:37:35;;;;;;;;;;;;;;;1.67;100.00;101738.88;5038770;28;19924;-69
2022/01/16 11:40:19;;;;;;;;;;;;;;;1.85;100.00;101735.63;5038704;28;19927;-70
2022/01/16 11:43:25;;;;;;;;;;;;;;;1.94;100.00;101734.41;5053837;28;19924;-70
2022/01/16 11:46:17;;;;;;;;;;;;;;;1.89;100.00;101739.88;5053605;28;19928;-70
2022/01/16 11:49:01;;;;;;;;;;;;;;;1.98;100.00;101718.47;5053698;28;20021;-70
2022/01/16 11:51:51;;;;;;;;;;;;;;;2.07;100.00;101715.50;5053158;28;20006;-70
2022/01/16 11:54:36;;;;;;;;;;;;;;;2.12;100.00;101720.59;5039540;28;20355;-71
2022/01/16 11:57:29;;;;;;;;;;;;;;;2.08;100.00;101717.22;5024322;28;19966;-70
2022/01/16 12:00:14;;;;;;;;;;;;;;;2.29;100.00;101724.31;5038305;28;19923;-71
2022/01/16 12:02:58;;;;;;;;;;;;;;;2.25;100.00;101722.72;5053562;28;19923;-71
2022/01/16 12:05:42;;;;;;;;;;;;;;;2.23;100.00;101729.84;5038023;28;19928;-70
2022/01/16 12:08:33;;;;;;;;;;;;;;;2.39;100.00;101738.84;5039026;28;19935;-70
2022/01/16 12:11:36;;;;;;;;;;;;;;;2.19;100.00;101743.16;5038843;28;20070;-70
2022/01/16 12:14:39;;;;;;;;;;;;;;;2.28;100.00;101737.56;5038603;28;19984;-69
2022/01/16 12:17:33;;;;;;;;;;;;;;;2.26;100.00;101749.91;5057782;28;19978;-71
2022/01/16 12:20:25;;;;;;;;;;;;;;;2.26;100.00;101758.66;5061022;28;19928;-70
2022/01/16 12:23:09;;;;;;;;;;;;;;;2.32;100.00;101750.53;5045055;28;19935;-71
2022/01/16 12:25:54;;;;;;;;;;;;;;;2.35;100.00;101755.69;5053420;28;19973;-71
2022/01/16 12:28:41;;;;;;;;;;;;;;;2.34;100.00;101756.59;5038131;28;19924;-70
2022/01/16 12:31:34;;;;;;;;;;;;;;;2.30;100.00;101752.38;5038136;28;19923;-71
2022/01/16 12:34:37;;;;;;;;;;;;;;;2.29;100.00;101755.91;5037733;28;20233;-71
2022/01/16 12:37:40;;;;;;;;;;;;;;;2.43;100.00;101764.16;5038000;28;19967;-69
2022/01/16 12:40:23;;;;;;;;;;;;;;;2.47;100.00;101749.13;5037767;28;19962;-71
2022/01/16 12:43:10;;;;;;;;;;;;;;;2.41;100.00;101755.47;5038184;28;19969;-68
2022/01/16 12:45:54;;;;;;;;;;;;;;;2.47;100.00;101760.50;5024168;28;20292;-71
2022/01/16 12:48:39;;;;;;;;;;;;;;;2.47;100.00;101757.00;5037708;28;20012;-71
2022/01/16 12:51:24;;;;;;;;;;;;;;;2.51;100.00;101762.09;5037641;28;19970;-69
2022/01/16 12:54:12;;;;;;;;;;;;;;;2.47;100.00;101763.13;5037550;28;19923;-68
2022/01/16 12:57:00;;;;;;;;;;;;;;;2.58;100.00;101758.31;5037586;28;19924;-69
2022/01/16 12:59:43;;;;;;;;;;;;;;;2.53;100.00;101765.53;5037727;28;19924;-70
2022/01/16 13:02:27;;;;;;;;;;;;;;;2.54;100.00;101764.63;5025659;28;19970;-70
2022/01/16 13:05:11;;;;;;;;;;;;;;;2.41;100.00;101760.72;5041450;28;20031;-71
2022/01/16 13:08:01;;;;;;;;;;;;;;;2.34;100.00;101753.97;5041554;28;20012;-70
2022/01/16 13:10:45;;;;;;;;;;;;;;;2.39;100.00;101749.38;5041361;28;20010;-71
2022/01/16 13:13:32;;;;;;;;;;;;;;;2.32;100.00;101755.81;5041439;28;20379;-71
2022/01/16 13:16:20;;;;;;;;;;;;;;;2.41;100.00;101747.56;5056474;28;19990;-71
2022/01/16 13:19:15;;;;;;;;;;;;;;;2.32;100.00;101749.66;5056704;28;20015;-70
2022/01/16 13:22:05;;;;;;;;;;;;;;;2.38;100.00;101729.25;5056901;28;19967;-69
2022/01/16 13:24:50;;;;;;;;;;;;;;;2.44;100.00;101719.34;5041686;28;20019;-71
2022/01/16 13:27:34;;;;;;;;;;;;;;;2.43;100.00;101711.53;5057983;28;20392;-70
2022/01/16 13:30:24;;;;;;;;;;;;;;;2.41;100.00;101721.25;5041343;28;19924;-70
2022/01/16 13:33:08;;;;;;;;;;;;;;;2.44;100.00;101713.22;5056391;28;19951;-70
2022/01/16 13:35:58;;;;;;;;;;;;;;;2.44;100.00;101718.50;5040836;28;19966;-70
2022/01/16 13:38:45;;;;;;;;;;;;;;;2.58;100.00;101721.44;5041136;28;19924;-70
2022/01/16 13:41:29;;;;;;;;;;;;;;;2.49;100.00;101724.44;5040975;28;20417;-70
2022/01/16 13:44:25;;;;;;;;;;;;;;;2.61;100.00;101731.88;5026872;28;20405;-70
2022/01/16 13:47:09;;;;;;;;;;;;;;;2.69;100.00;101729.78;5026763;28;19943;-70
2022/01/16 13:49:54;;;;;;;;;;;;;;;2.64;100.00;101726.50;5027150;28;20300;-70
2022/01/16 13:52:39;;;;;;;;;;;;;;;2.72;100.00;101732.31;5040774;28;19924;-71
2022/01/16 13:55:24;;;;;;;;;;;;;;;2.62;100.00;101738.88;5040522;28;19923;-71
2022/01/16 13:58:11;;;;;;;;;;;;;;;2.61;100.00;101730.09;5040494;28;19924;-71
2022/01/16 14:01:00;;;;;;;;;;;;;;;2.50;100.00;101721.75;5055885;28;19943;-71
2022/01/16 14:03:47;;;;;;;;;;;;;;;2.58;100.00;101735.47;5055699;28;19927;-71
2022/01/16 14:06:32;;;;;;;;;;;;;;;2.57;100.00;101735.53;5055398;28;19928;-70
2022/01/16 14:09:17;;;;;;;;;;;;;;;2.59;100.00;101734.56;5040385;28;19947;-70
2022/01/16 14:12:01;;;;;;;;;;;;;;;2.68;100.00;101728.06;5055913;28;19969;-71
2022/01/16 14:14:45;;;;;;;;;;;;;;;2.58;100.00;101706.53;5054839;28;19924;-71
2022/01/16 14:17:41;;;;;;;;;;;;;;;2.68;100.00;101699.09;5040428;28;19966;-71
2022/01/16 14:20:46;;;;;;;;;;;;;;;2.64;100.00;101708.91;5055161;28;20376;-71
2022/01/16 14:23:28;;;;;;;;;;;;;;;2.73;100.00;101720.88;5043298;28;19987;-71
2022/01/16 14:26:12;;;;;;;;;;;;;;;2.67;100.00;101739.53;5054364;28;19951;-69
2022/01/16 14:28:56;;;;;;;;;;;;;;;2.76;100.00;101736.53;5040238;28;19924;-69
2022/01/16 14:31:40;;;;;;;;;;;;;;;2.73;100.00;101747.19;5040126;28;20387;-70
2022/01/16 14:34:24;;;;;;;;;;;;;;;2.79;100.00;101768.00;5055429;28;19925;-71
2022/01/16 14:37:09;;;;;;;;;;;;;;;2.85;100.00;101770.41;5055076;28;19923;-71
2022/01/16 14:39:53;;;;;;;;;;;;;;;2.80;100.00;101772.34;5039752;28;19924;-71
2022/01/16 14:42:39;;;;;;;;;;;;;;;2.84;100.00;101766.06;5039707;28;20027;-71
2022/01/16 14:45:23;;;;;;;;;;;;;;;2.79;100.00;101768.00;5040127;28;19986;-71
2022/01/16 14:48:07;;;;;;;;;;;;;;;2.78;100.00;101766.31;5054933;28;19927;-71
2022/01/16 14:50:51;;;;;;;;;;;;;;;2.81;100.00;101781.97;5039509;28;20388;-71
2022/01/16 14:53:37;;;;;;;;;;;;;;;2.70;100.00;101763.97;5054777;28;19994;-71
2022/01/16 14:56:20;;;;;;;;;;;;;;;2.73;100.00;101768.25;5039748;28;19982;-71